sensor_id;sensor_type;location;lat;lon;timestamp;temperature;humidity
20911;DHT22;10615;42.702;23.314;2024-03-22T00:00:57;10.40;51.90
20911;DHT22;10615;42.702;23.314;2024-03-22T00:01:58;10.40;51.30
20911;DHT22;10615;42.702;23.314;2024-03-22T00:02:58;10.40;51.30
20911;DHT22;10615;42.702;23.314;2024-03-22T00:03:59;10.40;51.40
20911;DHT22;10615;42.702;23.314;2024-03-22T00:05:00;10.40;51.40
20911;DHT22;10615;42.702;23.314;2024-03-22T00:06:00;10.50;51.60
20911;DHT22;10615;42.702;23.314;2024-03-22T00:07:01;10.40;51.60
20911;DHT22;10615;42.702;23.314;2024-03-22T00:08:03;10.30;51.50
20911;DHT22;10615;42.702;23.314;2024-03-22T00:09:03;10.30;51.70
20911;DHT22;10615;42.702;23.314;2024-03-22T00:10:05;10.30;51.90
20911;DHT22;10615;42.702;23.314;2024-03-22T00:11:06;10.20;51.90
20911;DHT22;10615;42.702;23.314;2024-03-22T00:12:06;10.20;52.00
20911;DHT22;10615;42.702;23.314;2024-03-22T00:13:07;10.20;52.10
20911;DHT22;10615;42.702;23.314;2024-03-22T00:14:08;10.20;52.10
20911;DHT22;10615;42.702;23.314;2024-03-22T00:15:09;10.20;52.20
20911;DHT22;10615;42.702;23.314;2024-03-22T00:16:10;10.20;52.30
20911;DHT22;10615;42.702;23.314;2024-03-22T00:17:10;10.20;52.40
20911;DHT22;10615;42.702;23.314;2024-03-22T00:18:11;10.10;52.50
20911;DHT22;10615;42.702;23.314;2024-03-22T00:19:11;10.10;52.60
20911;DHT22;10615;42.702;23.314;2024-03-22T00:20:12;10.10;52.60
20911;DHT22;10615;42.702;23.314;2024-03-22T00:21:13;10.10;52.80
20911;DHT22;10615;42.702;23.314;2024-03-22T00:22:13;10.10;52.80
20911;DHT22;10615;42.702;23.314;2024-03-22T00:23:15;10.10;52.90
20911;DHT22;10615;42.702;23.314;2024-03-22T00:24:15;10.10;52.90
20911;DHT22;10615;42.702;23.314;2024-03-22T00:25:16;10.10;52.90
20911;DHT22;10615;42.702;23.314;2024-03-22T00:26:16;10.10;53.00
20911;DHT22;10615;42.702;23.314;2024-03-22T00:27:17;10.10;53.10
20911;DHT22;10615;42.702;23.314;2024-03-22T00:28:18;10.10;53.20
20911;DHT22;10615;42.702;23.314;2024-03-22T00:29:18;10.10;53.30
20911;DHT22;10615;42.702;23.314;2024-03-22T00:30:19;10.10;53.40
20911;DHT22;10615;42.702;23.314;2024-03-22T00:31:20;10.10;53.50
20911;DHT22;10615;42.702;23.314;2024-03-22T00:32:20;10.00;53.40
20911;DHT22;10615;42.702;23.314;2024-03-22T00:33:21;10.00;53.40
20911;DHT22;10615;42.702;23.314;2024-03-22T00:34:21;10.00;53.50
20911;DHT22;10615;42.702;23.314;2024-03-22T00:35:22;9.90;53.60
20911;DHT22;10615;42.702;23.314;2024-03-22T00:36:23;9.90;53.70
20911;DHT22;10615;42.702;23.314;2024-03-22T00:37:24;9.90;53.80
20911;DHT22;10615;42.702;23.314;2024-03-22T00:38:24;9.90;53.90
20911;DHT22;10615;42.702;23.314;2024-03-22T00:39:25;9.90;53.90
20911;DHT22;10615;42.702;23.314;2024-03-22T00:40:25;9.80;53.80
20911;DHT22;10615;42.702;23.314;2024-03-22T00:41:26;9.80;53.90
20911;DHT22;10615;42.702;23.314;2024-03-22T00:42:26;9.80;53.90
20911;DHT22;10615;42.702;23.314;2024-03-22T00:43:27;9.80;53.90
20911;DHT22;10615;42.702;23.314;2024-03-22T00:44:28;9.90;54.00
20911;DHT22;10615;42.702;23.314;2024-03-22T00:45:28;9.80;54.00
20911;DHT22;10615;42.702;23.314;2024-03-22T00:46:29;9.80;54.10
20911;DHT22;10615;42.702;23.314;2024-03-22T00:47:29;9.80;54.20
20911;DHT22;10615;42.702;23.314;2024-03-22T00:48:30;9.90;54.30
20911;DHT22;10615;42.702;23.314;2024-03-22T00:49:30;9.90;54.40
20911;DHT22;10615;42.702;23.314;2024-03-22T00:50:31;9.80;54.40
20911;DHT22;10615;42.702;23.314;2024-03-22T00:51:32;9.80;54.40
20911;DHT22;10615;42.702;23.314;2024-03-22T00:52:32;9.80;54.50
20911;DHT22;10615;42.702;23.314;2024-03-22T00:53:33;9.80;54.60
20911;DHT22;10615;42.702;23.314;2024-03-22T00:54:33;9.80;55.30
20911;DHT22;10615;42.702;23.314;2024-03-22T00:55:34;9.80;54.60
20911;DHT22;10615;42.702;23.314;2024-03-22T00:56:34;9.80;54.60
20911;DHT22;10615;42.702;23.314;2024-03-22T00:57:35;9.80;54.60
20911;DHT22;10615;42.702;23.314;2024-03-22T00:58:36;9.80;54.70
20911;DHT22;10615;42.702;23.314;2024-03-22T00:59:36;9.80;54.70
20911;DHT22;10615;42.702;23.314;2024-03-22T01:00:37;9.80;54.80
20911;DHT22;10615;42.702;23.314;2024-03-22T01:01:38;9.80;54.80
20911;DHT22;10615;42.702;23.314;2024-03-22T01:02:39;9.70;54.90
20911;DHT22;10615;42.702;23.314;2024-03-22T01:03:39;9.70;55.10
20911;DHT22;10615;42.702;23.314;2024-03-22T01:04:40;9.70;55.20
20911;DHT22;10615;42.702;23.314;2024-03-22T01:05:40;9.70;55.10
20911;DHT22;10615;42.702;23.314;2024-03-22T01:06:42;9.70;55.20
20911;DHT22;10615;42.702;23.314;2024-03-22T01:07:43;9.70;55.20
20911;DHT22;10615;42.702;23.314;2024-03-22T01:08:43;9.70;55.20
20911;DHT22;10615;42.702;23.314;2024-03-22T01:09:44;9.70;55.20
20911;DHT22;10615;42.702;23.314;2024-03-22T01:10:44;9.60;55.20
20911;DHT22;10615;42.702;23.314;2024-03-22T01:11:45;9.60;55.20
20911;DHT22;10615;42.702;23.314;2024-03-22T01:12:46;9.70;55.20
20911;DHT22;10615;42.702;23.314;2024-03-22T01:13:46;9.70;55.30
20911;DHT22;10615;42.702;23.314;2024-03-22T01:14:47;9.70;55.30
20911;DHT22;10615;42.702;23.314;2024-03-22T01:15:47;9.70;55.30
20911;DHT22;10615;42.702;23.314;2024-03-22T01:16:48;9.60;55.30
20911;DHT22;10615;42.702;23.314;2024-03-22T01:17:48;9.70;55.40
20911;DHT22;10615;42.702;23.314;2024-03-22T01:18:49;9.70;55.40
20911;DHT22;10615;42.702;23.314;2024-03-22T01:19:50;9.70;55.50
20911;DHT22;10615;42.702;23.314;2024-03-22T01:20:51;9.70;55.50
20911;DHT22;10615;42.702;23.314;2024-03-22T01:21:52;9.60;55.40
20911;DHT22;10615;42.702;23.314;2024-03-22T01:22:52;9.60;55.50
20911;DHT22;10615;42.702;23.314;2024-03-22T01:23:53;9.60;55.50
20911;DHT22;10615;42.702;23.314;2024-03-22T01:24:54;9.60;55.60
20911;DHT22;10615;42.702;23.314;2024-03-22T01:25:54;9.60;55.60
20911;DHT22;10615;42.702;23.314;2024-03-22T01:26:55;9.60;55.60
20911;DHT22;10615;42.702;23.314;2024-03-22T01:27:56;9.60;55.60
20911;DHT22;10615;42.702;23.314;2024-03-22T01:28:56;9.60;55.60
20911;DHT22;10615;42.702;23.314;2024-03-22T01:29:57;9.60;55.60
20911;DHT22;10615;42.702;23.314;2024-03-22T01:30:57;9.60;55.60
20911;DHT22;10615;42.702;23.314;2024-03-22T01:31:58;9.60;55.50
20911;DHT22;10615;42.702;23.314;2024-03-22T01:32:59;9.60;55.50
20911;DHT22;10615;42.702;23.314;2024-03-22T01:33:59;9.60;55.60
20911;DHT22;10615;42.702;23.314;2024-03-22T01:35:00;9.50;55.50
20911;DHT22;10615;42.702;23.314;2024-03-22T01:36:01;9.50;55.50
20911;DHT22;10615;42.702;23.314;2024-03-22T01:37:01;9.50;55.50
20911;DHT22;10615;42.702;23.314;2024-03-22T01:38:03;9.60;55.60
20911;DHT22;10615;42.702;23.314;2024-03-22T01:39:03;9.50;55.50
20911;DHT22;10615;42.702;23.314;2024-03-22T01:40:04;9.50;55.60
20911;DHT22;10615;42.702;23.314;2024-03-22T01:41:05;9.50;55.70
20911;DHT22;10615;42.702;23.314;2024-03-22T01:42:05;9.50;55.80
20911;DHT22;10615;42.702;23.314;2024-03-22T01:43:06;9.50;55.80
20911;DHT22;10615;42.702;23.314;2024-03-22T01:44:07;9.50;55.80
20911;DHT22;10615;42.702;23.314;2024-03-22T01:45:07;9.50;55.80
20911;DHT22;10615;42.702;23.314;2024-03-22T01:46:08;9.50;55.90
20911;DHT22;10615;42.702;23.314;2024-03-22T01:47:09;9.40;55.80
20911;DHT22;10615;42.702;23.314;2024-03-22T01:48:10;9.40;55.80
20911;DHT22;10615;42.702;23.314;2024-03-22T01:49:15;9.40;55.90
20911;DHT22;10615;42.702;23.314;2024-03-22T01:50:16;9.40;56.00
20911;DHT22;10615;42.702;23.314;2024-03-22T01:51:17;9.40;56.00
20911;DHT22;10615;42.702;23.314;2024-03-22T01:52:17;9.40;56.10
20911;DHT22;10615;42.702;23.314;2024-03-22T01:53:18;9.40;56.10
20911;DHT22;10615;42.702;23.314;2024-03-22T01:54:19;9.30;56.10
20911;DHT22;10615;42.702;23.314;2024-03-22T01:55:20;9.30;56.10
20911;DHT22;10615;42.702;23.314;2024-03-22T01:56:21;9.30;56.30
20911;DHT22;10615;42.702;23.314;2024-03-22T01:57:22;9.20;56.30
20911;DHT22;10615;42.702;23.314;2024-03-22T01:58:23;9.30;56.40
20911;DHT22;10615;42.702;23.314;2024-03-22T01:59:23;9.20;56.30
20911;DHT22;10615;42.702;23.314;2024-03-22T02:00:24;9.30;56.40
20911;DHT22;10615;42.702;23.314;2024-03-22T02:01:24;9.20;56.30
20911;DHT22;10615;42.702;23.314;2024-03-22T02:02:26;9.30;56.40
20911;DHT22;10615;42.702;23.314;2024-03-22T02:03:27;9.30;56.40
20911;DHT22;10615;42.702;23.314;2024-03-22T02:04:27;9.20;56.30
20911;DHT22;10615;42.702;23.314;2024-03-22T02:05:28;9.20;56.30
20911;DHT22;10615;42.702;23.314;2024-03-22T02:06:28;9.30;56.40
20911;DHT22;10615;42.702;23.314;2024-03-22T02:07:29;9.20;56.30
20911;DHT22;10615;42.702;23.314;2024-03-22T02:08:30;9.20;56.30
20911;DHT22;10615;42.702;23.314;2024-03-22T02:09:30;9.20;56.40
20911;DHT22;10615;42.702;23.314;2024-03-22T02:10:31;9.20;56.40
20911;DHT22;10615;42.702;23.314;2024-03-22T02:11:32;9.20;56.40
20911;DHT22;10615;42.702;23.314;2024-03-22T02:12:32;9.20;56.40
20911;DHT22;10615;42.702;23.314;2024-03-22T02:13:33;9.20;56.50
20911;DHT22;10615;42.702;23.314;2024-03-22T02:14:33;9.20;56.50
20911;DHT22;10615;42.702;23.314;2024-03-22T02:15:34;9.20;56.50
20911;DHT22;10615;42.702;23.314;2024-03-22T02:16:35;9.20;56.50
20911;DHT22;10615;42.702;23.314;2024-03-22T02:17:35;9.20;56.50
20911;DHT22;10615;42.702;23.314;2024-03-22T02:18:36;9.20;56.50
20911;DHT22;10615;42.702;23.314;2024-03-22T02:19:36;9.20;56.60
20911;DHT22;10615;42.702;23.314;2024-03-22T02:20:37;9.20;56.50
20911;DHT22;10615;42.702;23.314;2024-03-22T02:21:37;9.20;56.50
20911;DHT22;10615;42.702;23.314;2024-03-22T02:22:38;9.20;56.50
20911;DHT22;10615;42.702;23.314;2024-03-22T02:23:39;9.20;56.50
20911;DHT22;10615;42.702;23.314;2024-03-22T02:24:40;9.10;56.50
20911;DHT22;10615;42.702;23.314;2024-03-22T02:25:40;9.10;56.50
20911;DHT22;10615;42.702;23.314;2024-03-22T02:26:41;9.10;56.60
20911;DHT22;10615;42.702;23.314;2024-03-22T02:27:41;9.10;56.70
20911;DHT22;10615;42.702;23.314;2024-03-22T02:28:42;9.00;56.60
20911;DHT22;10615;42.702;23.314;2024-03-22T02:29:42;9.10;56.80
20911;DHT22;10615;42.702;23.314;2024-03-22T02:30:43;9.00;56.80
20911;DHT22;10615;42.702;23.314;2024-03-22T02:31:44;9.00;56.90
20911;DHT22;10615;42.702;23.314;2024-03-22T02:32:44;8.90;56.90
20911;DHT22;10615;42.702;23.314;2024-03-22T02:33:45;8.90;57.00
20911;DHT22;10615;42.702;23.314;2024-03-22T02:34:45;8.80;57.20
20911;DHT22;10615;42.702;23.314;2024-03-22T02:35:46;8.80;57.30
20911;DHT22;10615;42.702;23.314;2024-03-22T02:36:47;8.70;57.30
20911;DHT22;10615;42.702;23.314;2024-03-22T02:37:48;8.70;57.40
20911;DHT22;10615;42.702;23.314;2024-03-22T02:38:48;8.70;57.50
20911;DHT22;10615;42.702;23.314;2024-03-22T02:39:49;8.60;57.60
20911;DHT22;10615;42.702;23.314;2024-03-22T02:40:50;8.50;57.80
20911;DHT22;10615;42.702;23.314;2024-03-22T02:41:51;8.50;57.90
20911;DHT22;10615;42.702;23.314;2024-03-22T02:42:51;8.50;58.00
20911;DHT22;10615;42.702;23.314;2024-03-22T02:43:52;8.50;58.20
20911;DHT22;10615;42.702;23.314;2024-03-22T02:44:52;8.50;58.20
20911;DHT22;10615;42.702;23.314;2024-03-22T02:45:53;8.40;58.30
20911;DHT22;10615;42.702;23.314;2024-03-22T02:46:54;8.40;58.40
20911;DHT22;10615;42.702;23.314;2024-03-22T02:47:54;8.40;58.30
20911;DHT22;10615;42.702;23.314;2024-03-22T02:48:55;8.50;58.30
20911;DHT22;10615;42.702;23.314;2024-03-22T02:49:55;8.40;58.30
20911;DHT22;10615;42.702;23.314;2024-03-22T02:50:56;8.40;58.40
20911;DHT22;10615;42.702;23.314;2024-03-22T02:51:57;8.40;58.50
20911;DHT22;10615;42.702;23.314;2024-03-22T02:52:57;8.40;58.50
20911;DHT22;10615;42.702;23.314;2024-03-22T02:53:58;8.40;58.50
20911;DHT22;10615;42.702;23.314;2024-03-22T02:54:58;8.40;58.50
20911;DHT22;10615;42.702;23.314;2024-03-22T02:55:59;8.40;58.50
20911;DHT22;10615;42.702;23.314;2024-03-22T02:57:00;8.40;58.50
20911;DHT22;10615;42.702;23.314;2024-03-22T02:58:02;8.40;58.50
20911;DHT22;10615;42.702;23.314;2024-03-22T02:59:03;8.40;58.50
20911;DHT22;10615;42.702;23.314;2024-03-22T03:00:03;8.50;58.60
20911;DHT22;10615;42.702;23.314;2024-03-22T03:01:05;8.50;58.60
20911;DHT22;10615;42.702;23.314;2024-03-22T03:02:06;8.40;58.60
20911;DHT22;10615;42.702;23.314;2024-03-22T03:03:07;8.50;58.60
20911;DHT22;10615;42.702;23.314;2024-03-22T03:04:07;8.50;58.60
20911;DHT22;10615;42.702;23.314;2024-03-22T03:05:08;8.50;58.60
20911;DHT22;10615;42.702;23.314;2024-03-22T03:06:08;8.50;58.60
20911;DHT22;10615;42.702;23.314;2024-03-22T03:07:10;8.50;58.70
20911;DHT22;10615;42.702;23.314;2024-03-22T03:08:11;8.50;58.60
20911;DHT22;10615;42.702;23.314;2024-03-22T03:09:12;8.50;59.00
20911;DHT22;10615;42.702;23.314;2024-03-22T03:10:12;8.40;58.60
20911;DHT22;10615;42.702;23.314;2024-03-22T03:11:16;8.40;58.60
20911;DHT22;10615;42.702;23.314;2024-03-22T03:12:16;8.40;58.70
20911;DHT22;10615;42.702;23.314;2024-03-22T03:13:17;8.30;58.90
20911;DHT22;10615;42.702;23.314;2024-03-22T03:14:18;8.20;59.00
20911;DHT22;10615;42.702;23.314;2024-03-22T03:15:18;8.10;59.10
20911;DHT22;10615;42.702;23.314;2024-03-22T03:16:19;8.00;59.30
20911;DHT22;10615;42.702;23.314;2024-03-22T03:17:19;7.90;59.50
20911;DHT22;10615;42.702;23.314;2024-03-22T03:18:20;7.90;59.70
20911;DHT22;10615;42.702;23.314;2024-03-22T03:19:20;7.80;59.90
20911;DHT22;10615;42.702;23.314;2024-03-22T03:20:21;7.80;60.00
20911;DHT22;10615;42.702;23.314;2024-03-22T03:21:22;7.70;60.00
20911;DHT22;10615;42.702;23.314;2024-03-22T03:22:22;7.70;60.20
20911;DHT22;10615;42.702;23.314;2024-03-22T03:23:23;7.60;60.40
20911;DHT22;10615;42.702;23.314;2024-03-22T03:24:23;7.50;60.60
20911;DHT22;10615;42.702;23.314;2024-03-22T03:25:24;7.40;60.70
20911;DHT22;10615;42.702;23.314;2024-03-22T03:26:24;7.20;60.80
20911;DHT22;10615;42.702;23.314;2024-03-22T03:27:25;7.20;61.20
20911;DHT22;10615;42.702;23.314;2024-03-22T03:28:26;7.10;61.50
20911;DHT22;10615;42.702;23.314;2024-03-22T03:29:27;6.90;61.80
20911;DHT22;10615;42.702;23.314;2024-03-22T03:30:27;6.90;62.10
20911;DHT22;10615;42.702;23.314;2024-03-22T03:31:28;6.80;62.40
20911;DHT22;10615;42.702;23.314;2024-03-22T03:32:29;6.80;62.70
20911;DHT22;10615;42.702;23.314;2024-03-22T03:33:29;6.80;63.00
20911;DHT22;10615;42.702;23.314;2024-03-22T03:34:30;6.80;63.20
20911;DHT22;10615;42.702;23.314;2024-03-22T03:35:31;6.80;63.30
20911;DHT22;10615;42.702;23.314;2024-03-22T03:36:31;6.80;63.40
20911;DHT22;10615;42.702;23.314;2024-03-22T03:37:32;6.80;63.40
20911;DHT22;10615;42.702;23.314;2024-03-22T03:38:32;6.80;63.50
20911;DHT22;10615;42.702;23.314;2024-03-22T03:39:33;6.80;63.60
20911;DHT22;10615;42.702;23.314;2024-03-22T03:40:34;6.80;63.60
20911;DHT22;10615;42.702;23.314;2024-03-22T03:41:35;6.80;63.60
20911;DHT22;10615;42.702;23.314;2024-03-22T03:42:35;6.80;63.60
20911;DHT22;10615;42.702;23.314;2024-03-22T03:43:36;6.80;63.60
20911;DHT22;10615;42.702;23.314;2024-03-22T03:44:37;6.80;63.70
20911;DHT22;10615;42.702;23.314;2024-03-22T03:45:37;6.80;63.90
20911;DHT22;10615;42.702;23.314;2024-03-22T03:46:38;6.80;63.90
20911;DHT22;10615;42.702;23.314;2024-03-22T03:47:38;6.80;64.00
20911;DHT22;10615;42.702;23.314;2024-03-22T03:48:39;6.80;63.90
20911;DHT22;10615;42.702;23.314;2024-03-22T03:49:39;6.80;63.80
20911;DHT22;10615;42.702;23.314;2024-03-22T03:50:40;6.70;63.70
20911;DHT22;10615;42.702;23.314;2024-03-22T03:51:41;6.70;63.50
20911;DHT22;10615;42.702;23.314;2024-03-22T03:52:41;6.70;63.50
20911;DHT22;10615;42.702;23.314;2024-03-22T03:53:42;6.60;63.40
20911;DHT22;10615;42.702;23.314;2024-03-22T03:54:43;6.60;63.40
20911;DHT22;10615;42.702;23.314;2024-03-22T03:55:43;6.60;63.50
20911;DHT22;10615;42.702;23.314;2024-03-22T03:56:44;6.60;63.70
20911;DHT22;10615;42.702;23.314;2024-03-22T03:57:44;6.60;63.70
20911;DHT22;10615;42.702;23.314;2024-03-22T03:58:45;6.60;63.70
20911;DHT22;10615;42.702;23.314;2024-03-22T03:59:46;6.60;63.50
20911;DHT22;10615;42.702;23.314;2024-03-22T04:00:47;6.70;63.50
20911;DHT22;10615;42.702;23.314;2024-03-22T04:01:47;6.70;63.40
20911;DHT22;10615;42.702;23.314;2024-03-22T04:02:51;6.70;63.40
20911;DHT22;10615;42.702;23.314;2024-03-22T04:03:51;6.70;63.30
20911;DHT22;10615;42.702;23.314;2024-03-22T04:04:52;6.80;63.10
20911;DHT22;10615;42.702;23.314;2024-03-22T04:05:59;6.80;63.10
20911;DHT22;10615;42.702;23.314;2024-03-22T04:07:00;6.80;63.10
20911;DHT22;10615;42.702;23.314;2024-03-22T04:08:00;6.80;63.00
20911;DHT22;10615;42.702;23.314;2024-03-22T04:09:01;6.90;63.00
20911;DHT22;10615;42.702;23.314;2024-03-22T04:10:03;6.90;62.90
20911;DHT22;10615;42.702;23.314;2024-03-22T04:11:03;7.00;62.80
20911;DHT22;10615;42.702;23.314;2024-03-22T04:12:05;7.00;62.70
20911;DHT22;10615;42.702;23.314;2024-03-22T04:13:05;7.00;62.60
20911;DHT22;10615;42.702;23.314;2024-03-22T04:14:06;7.00;62.60
20911;DHT22;10615;42.702;23.314;2024-03-22T04:15:06;6.90;62.70
20911;DHT22;10615;42.702;23.314;2024-03-22T04:16:08;6.90;62.80
20911;DHT22;10615;42.702;23.314;2024-03-22T04:17:08;7.00;63.00
20911;DHT22;10615;42.702;23.314;2024-03-22T04:18:09;7.00;62.80
20911;DHT22;10615;42.702;23.314;2024-03-22T04:19:09;7.00;62.70
20911;DHT22;10615;42.702;23.314;2024-03-22T04:20:10;7.00;62.80
20911;DHT22;10615;42.702;23.314;2024-03-22T04:21:11;7.00;62.70
20911;DHT22;10615;42.702;23.314;2024-03-22T04:22:12;7.10;62.70
20911;DHT22;10615;42.702;23.314;2024-03-22T04:23:12;7.10;62.60
20911;DHT22;10615;42.702;23.314;2024-03-22T04:24:13;7.10;62.60
20911;DHT22;10615;42.702;23.314;2024-03-22T04:25:13;7.20;62.50
20911;DHT22;10615;42.702;23.314;2024-03-22T04:26:14;7.20;62.30
20911;DHT22;10615;42.702;23.314;2024-03-22T04:27:15;7.20;62.30
20911;DHT22;10615;42.702;23.314;2024-03-22T04:28:15;7.20;62.40
20911;DHT22;10615;42.702;23.314;2024-03-22T04:29:16;7.20;62.30
20911;DHT22;10615;42.702;23.314;2024-03-22T04:30:17;7.20;62.30
20911;DHT22;10615;42.702;23.314;2024-03-22T04:31:17;7.20;62.30
20911;DHT22;10615;42.702;23.314;2024-03-22T04:32:18;7.20;62.30
20911;DHT22;10615;42.702;23.314;2024-03-22T04:33:18;7.30;62.30
20911;DHT22;10615;42.702;23.314;2024-03-22T04:34:19;7.30;62.30
20911;DHT22;10615;42.702;23.314;2024-03-22T04:35:19;7.30;62.30
20911;DHT22;10615;42.702;23.314;2024-03-22T04:36:20;7.30;62.10
20911;DHT22;10615;42.702;23.314;2024-03-22T04:37:21;7.30;62.10
20911;DHT22;10615;42.702;23.314;2024-03-22T04:38:22;7.20;62.10
20911;DHT22;10615;42.702;23.314;2024-03-22T04:39:22;7.30;62.30
20911;DHT22;10615;42.702;23.314;2024-03-22T04:40:24;7.30;62.30
20911;DHT22;10615;42.702;23.314;2024-03-22T04:41:25;7.30;62.20
20911;DHT22;10615;42.702;23.314;2024-03-22T04:42:26;7.30;62.30
20911;DHT22;10615;42.702;23.314;2024-03-22T04:43:27;7.30;62.40
20911;DHT22;10615;42.702;23.314;2024-03-22T04:44:28;7.40;62.50
20911;DHT22;10615;42.702;23.314;2024-03-22T04:45:28;7.40;62.40
20911;DHT22;10615;42.702;23.314;2024-03-22T04:46:29;7.50;62.40
20911;DHT22;10615;42.702;23.314;2024-03-22T04:47:30;7.50;62.20
20911;DHT22;10615;42.702;23.314;2024-03-22T04:48:30;7.60;62.10
20911;DHT22;10615;42.702;23.314;2024-03-22T04:49:31;7.70;61.80
20911;DHT22;10615;42.702;23.314;2024-03-22T04:50:32;7.80;61.60
20911;DHT22;10615;42.702;23.314;2024-03-22T04:51:32;7.80;61.30
20911;DHT22;10615;42.702;23.314;2024-03-22T04:52:33;7.90;61.10
20911;DHT22;10615;42.702;23.314;2024-03-22T04:53:34;8.00;60.90
20911;DHT22;10615;42.702;23.314;2024-03-22T04:54:34;8.10;60.80
20911;DHT22;10615;42.702;23.314;2024-03-22T04:55:35;8.20;60.70
20911;DHT22;10615;42.702;23.314;2024-03-22T04:56:35;8.20;60.40
20911;DHT22;10615;42.702;23.314;2024-03-22T04:57:36;8.30;60.20
20911;DHT22;10615;42.702;23.314;2024-03-22T04:58:36;8.40;60.00
20911;DHT22;10615;42.702;23.314;2024-03-22T04:59:37;8.40;59.90
20911;DHT22;10615;42.702;23.314;2024-03-22T05:00:38;8.50;59.80
20911;DHT22;10615;42.702;23.314;2024-03-22T05:01:38;8.60;59.70
20911;DHT22;10615;42.702;23.314;2024-03-22T05:02:39;8.60;59.50
20911;DHT22;10615;42.702;23.314;2024-03-22T05:03:40;8.70;59.50
20911;DHT22;10615;42.702;23.314;2024-03-22T05:04:41;8.80;59.40
20911;DHT22;10615;42.702;23.314;2024-03-22T05:05:42;8.80;59.20
20911;DHT22;10615;42.702;23.314;2024-03-22T05:06:43;8.90;59.00
20911;DHT22;10615;42.702;23.314;2024-03-22T05:07:44;9.00;58.90
20911;DHT22;10615;42.702;23.314;2024-03-22T05:08:44;9.10;58.70
20911;DHT22;10615;42.702;23.314;2024-03-22T05:09:45;9.10;58.60
20911;DHT22;10615;42.702;23.314;2024-03-22T05:10:45;9.20;58.40
20911;DHT22;10615;42.702;23.314;2024-03-22T05:11:46;9.30;58.20
20911;DHT22;10615;42.702;23.314;2024-03-22T05:12:50;9.40;58.10
20911;DHT22;10615;42.702;23.314;2024-03-22T05:13:51;9.50;58.00
20911;DHT22;10615;42.702;23.314;2024-03-22T05:14:51;9.60;57.90
20911;DHT22;10615;42.702;23.314;2024-03-22T05:15:52;9.60;57.70
20911;DHT22;10615;42.702;23.314;2024-03-22T05:16:53;9.70;57.50
20911;DHT22;10615;42.702;23.314;2024-03-22T05:17:57;9.80;57.30
20911;DHT22;10615;42.702;23.314;2024-03-22T05:18:58;9.90;57.10
20911;DHT22;10615;42.702;23.314;2024-03-22T05:19:59;9.90;56.90
20911;DHT22;10615;42.702;23.314;2024-03-22T05:20:59;10.00;56.70
20911;DHT22;10615;42.702;23.314;2024-03-22T05:22:00;10.10;56.50
20911;DHT22;10615;42.702;23.314;2024-03-22T05:23:01;10.10;56.30
20911;DHT22;10615;42.702;23.314;2024-03-22T05:24:01;10.20;56.20
20911;DHT22;10615;42.702;23.314;2024-03-22T05:25:02;10.30;56.20
20911;DHT22;10615;42.702;23.314;2024-03-22T05:26:03;10.30;56.00
20911;DHT22;10615;42.702;23.314;2024-03-22T05:27:04;10.40;55.90
20911;DHT22;10615;42.702;23.314;2024-03-22T05:28:05;10.40;55.80
20911;DHT22;10615;42.702;23.314;2024-03-22T05:29:05;10.50;55.80
20911;DHT22;10615;42.702;23.314;2024-03-22T05:30:06;10.60;55.70
20911;DHT22;10615;42.702;23.314;2024-03-22T05:31:07;10.70;55.50
20911;DHT22;10615;42.702;23.314;2024-03-22T05:32:08;10.80;55.50
20911;DHT22;10615;42.702;23.314;2024-03-22T05:33:09;10.80;55.30
20911;DHT22;10615;42.702;23.314;2024-03-22T05:34:09;10.90;55.20
20911;DHT22;10615;42.702;23.314;2024-03-22T05:35:10;11.00;55.10
20911;DHT22;10615;42.702;23.314;2024-03-22T05:36:11;11.10;55.00
20911;DHT22;10615;42.702;23.314;2024-03-22T05:37:11;11.20;54.80
20911;DHT22;10615;42.702;23.314;2024-03-22T05:38:12;11.30;54.60
20911;DHT22;10615;42.702;23.314;2024-03-22T05:39:12;11.40;54.50
20911;DHT22;10615;42.702;23.314;2024-03-22T05:40:13;11.50;54.20
20911;DHT22;10615;42.702;23.314;2024-03-22T05:41:14;11.60;54.10
20911;DHT22;10615;42.702;23.314;2024-03-22T05:42:14;11.70;54.00
20911;DHT22;10615;42.702;23.314;2024-03-22T05:43:15;11.80;53.80
20911;DHT22;10615;42.702;23.314;2024-03-22T05:44:16;11.90;53.50
20911;DHT22;10615;42.702;23.314;2024-03-22T05:45:16;12.00;53.40
20911;DHT22;10615;42.702;23.314;2024-03-22T05:46:17;12.10;53.20
20911;DHT22;10615;42.702;23.314;2024-03-22T05:47:18;12.20;53.00
20911;DHT22;10615;42.702;23.314;2024-03-22T05:48:19;12.30;52.90
20911;DHT22;10615;42.702;23.314;2024-03-22T05:49:19;12.40;52.80
20911;DHT22;10615;42.702;23.314;2024-03-22T05:50:20;12.50;52.60
20911;DHT22;10615;42.702;23.314;2024-03-22T05:51:21;12.60;52.50
20911;DHT22;10615;42.702;23.314;2024-03-22T05:52:21;12.60;52.20
20911;DHT22;10615;42.702;23.314;2024-03-22T05:53:22;12.80;52.10
20911;DHT22;10615;42.702;23.314;2024-03-22T05:54:22;12.80;51.80
20911;DHT22;10615;42.702;23.314;2024-03-22T05:55:23;12.90;51.60
20911;DHT22;10615;42.702;23.314;2024-03-22T05:56:27;12.90;51.30
20911;DHT22;10615;42.702;23.314;2024-03-22T05:57:28;13.00;51.20
20911;DHT22;10615;42.702;23.314;2024-03-22T05:58:28;13.10;51.00
20911;DHT22;10615;42.702;23.314;2024-03-22T05:59:29;13.20;50.90
20911;DHT22;10615;42.702;23.314;2024-03-22T06:00:30;13.20;50.80
20911;DHT22;10615;42.702;23.314;2024-03-22T06:01:31;13.30;50.80
20911;DHT22;10615;42.702;23.314;2024-03-22T06:02:32;13.40;50.60
20911;DHT22;10615;42.702;23.314;2024-03-22T06:03:33;13.50;50.40
20911;DHT22;10615;42.702;23.314;2024-03-22T06:04:33;13.60;50.30
20911;DHT22;10615;42.702;23.314;2024-03-22T06:05:34;13.60;50.00
20911;DHT22;10615;42.702;23.314;2024-03-22T06:06:35;13.60;49.70
20911;DHT22;10615;42.702;23.314;2024-03-22T06:07:36;13.70;49.50
20911;DHT22;10615;42.702;23.314;2024-03-22T06:08:42;13.70;49.40
20911;DHT22;10615;42.702;23.314;2024-03-22T06:09:45;13.80;49.20
20911;DHT22;10615;42.702;23.314;2024-03-22T06:10:46;13.80;49.10
20911;DHT22;10615;42.702;23.314;2024-03-22T06:11:46;13.90;48.90
20911;DHT22;10615;42.702;23.314;2024-03-22T06:12:47;14.00;48.70
20911;DHT22;10615;42.702;23.314;2024-03-22T06:13:48;14.00;48.50
20911;DHT22;10615;42.702;23.314;2024-03-22T06:14:48;14.10;48.30
20911;DHT22;10615;42.702;23.314;2024-03-22T06:15:51;14.10;48.20
20911;DHT22;10615;42.702;23.314;2024-03-22T06:16:51;14.20;48.10
20911;DHT22;10615;42.702;23.314;2024-03-22T06:17:52;14.30;47.90
20911;DHT22;10615;42.702;23.314;2024-03-22T06:18:53;14.30;47.80
20911;DHT22;10615;42.702;23.314;2024-03-22T06:19:54;14.40;47.60
20911;DHT22;10615;42.702;23.314;2024-03-22T06:20:55;14.50;47.50
20911;DHT22;10615;42.702;23.314;2024-03-22T06:21:55;14.50;47.30
20911;DHT22;10615;42.702;23.314;2024-03-22T06:22:56;14.60;47.20